Time,TemperatureF,DewpointF,PressureIn,WindDirection,WindDirectionDegrees,WindSpeedMPH,WindSpeedGustMPH,Humidity,HourlyPrecipIn,Conditions,Clouds,dailyrainin,SolarRadiationWatts/m^2,SoftwareType,DateUTC
2013-03-02 00:01:00,64.0,54.0,-100.00,North,-999,-999.0,-999.0,71,0.00,,,-99.99,0.000000,,2013-03-02 10:01:00,
2013-03-02 00:15:00,64.0,54.0,-100.00,North,-999,-999.0,-999.0,71,0.00,,,-99.99,0.000000,,2013-03-02 10:15:00,
2013-03-02 00:21:00,64.0,54.0,-100.00,North,-999,-999.0,-999.0,71,0.00,,,-99.99,0.000000,,2013-03-02 10:21:00,
2013-03-02 00:31:00,64.0,54.0,-100.00,North,-999,-999.0,-999.0,71,0.00,,,-99.99,0.000000,,2013-03-02 10:31:00,
2013-03-02 00:52:00,65.0,56.0,-100.00,North,-999,-999.0,-999.0,74,0.00,,,0.00,0.000000,,2013-03-02 10:52:00,
2013-03-02 01:01:00,65.0,56.0,-100.00,North,-999,-999.0,-999.0,74,0.00,,,0.00,0.000000,,2013-03-02 11:01:00,
2013-03-02 01:11:00,65.0,56.0,-100.00,North,-999,-999.0,-999.0,74,0.00,,,0.00,0.000000,,2013-03-02 11:11:00,
2013-03-02 01:21:00,65.0,56.0,-100.00,North,-999,-999.0,-999.0,74,0.00,,,0.00,0.000000,,2013-03-02 11:21:00,
2013-03-02 01:31:00,65.0,56.0,-100.00,North,-999,-999.0,-999.0,74,0.00,,,0.00,0.000000,,2013-03-02 11:31:00,
2013-03-02 01:52:00,65.0,55.0,-100.00,North,-999,-999.0,-999.0,69,0.00,,,0.00,0.000000,,2013-03-02 11:52:00,
2013-03-02 02:02:00,65.0,55.0,-100.00,North,-999,-999.0,-999.0,69,0.00,,,0.00,0.000000,,2013-03-02 12:02:00,
2013-03-02 02:11:00,65.0,55.0,-100.00,North,-999,-999.0,-999.0,69,0.00,,,0.00,0.000000,,2013-03-02 12:11:00,
2013-03-02 02:21:00,65.0,55.0,-100.00,North,-999,-999.0,-999.0,69,0.00,,,0.00,0.000000,,2013-03-02 12:21:00,
2013-03-02 02:32:00,65.0,55.0,-100.00,North,-999,-999.0,-999.0,69,0.00,,,0.00,0.000000,,2013-03-02 12:32:00,
2013-03-02 03:01:00,65.0,57.0,-100.00,North,-999,-999.0,-999.0,75,0.00,,,0.00,0.000000,,2013-03-02 13:01:00,
2013-03-02 03:11:00,65.0,57.0,-100.00,North,-999,-999.0,-999.0,75,0.00,,,0.00,0.000000,,2013-03-02 13:11:00,
2013-03-02 03:21:00,65.0,57.0,-100.00,North,-999,-999.0,-999.0,75,0.00,,,0.00,0.000000,,2013-03-02 13:21:00,
2013-03-02 03:31:00,65.0,57.0,-100.00,North,-999,-999.0,-999.0,75,0.00,,,0.00,0.000000,,2013-03-02 13:31:00,
2013-03-02 04:01:00,63.0,52.0,-100.00,North,-999,-999.0,-999.0,67,0.00,,,0.00,0.000000,,2013-03-02 14:01:00,
2013-03-02 04:11:00,63.0,52.0,-100.00,North,-999,-999.0,-999.0,67,0.00,,,0.00,0.000000,,2013-03-02 14:11:00,
2013-03-02 04:21:00,63.0,52.0,-100.00,North,-999,-999.0,-999.0,67,0.00,,,0.00,0.000000,,2013-03-02 14:21:00,
2013-03-02 04:31:00,63.0,52.0,-100.00,North,-999,-999.0,-999.0,67,0.00,,,0.00,0.000000,,2013-03-02 14:31:00,
2013-03-02 04:52:00,65.0,54.0,-100.00,North,-999,-999.0,-999.0,68,0.00,,,-99.99,0.000000,,2013-03-02 14:52:00,
2013-03-02 05:02:00,65.0,54.0,-100.00,North,-999,-999.0,-999.0,68,0.00,,,-99.99,0.000000,,2013-03-02 15:02:00,
2013-03-02 05:11:00,65.0,54.0,-100.00,North,-999,-999.0,-999.0,68,0.00,,,-99.99,0.000000,,2013-03-02 15:11:00,
2013-03-02 05:21:00,65.0,54.0,-100.00,North,-999,-999.0,-999.0,68,0.00,,,-99.99,0.000000,,2013-03-02 15:21:00,
2013-03-02 05:31:00,65.0,54.0,-100.00,North,-999,-999.0,-999.0,68,0.00,,,-99.99,0.000000,,2013-03-02 15:31:00,
2013-03-02 06:01:00,65.0,53.0,-100.00,North,-999,-999.0,-999.0,64,0.00,,,0.00,0.000000,,2013-03-02 16:01:00,
2013-03-02 06:11:00,65.0,53.0,-100.00,North,-999,-999.0,-999.0,64,0.00,,,0.00,0.000000,,2013-03-02 16:11:00,
2013-03-02 06:21:00,65.0,53.0,-100.00,North,-999,-999.0,-999.0,64,0.00,,,0.00,0.000000,,2013-03-02 16:21:00,
2013-03-02 06:31:00,65.0,53.0,-100.00,North,-999,-999.0,-999.0,64,0.00,,,0.00,0.000000,,2013-03-02 16:31:00,
2013-03-02 06:52:00,63.0,52.0,-100.00,North,-999,-999.0,-999.0,68,0.00,,,0.00,0.000000,,2013-03-02 16:52:00,
2013-03-02 07:01:00,63.0,52.0,-100.00,North,-999,-999.0,-999.0,68,0.00,,,0.00,0.000000,,2013-03-02 17:01:00,
2013-03-02 07:11:00,63.0,52.0,-100.00,North,-999,-999.0,-999.0,68,0.00,,,0.00,0.000000,,2013-03-02 17:11:00,
2013-03-02 07:21:00,63.0,52.0,-100.00,North,-999,-999.0,-999.0,68,0.00,,,0.00,0.000000,,2013-03-02 17:21:00,
2013-03-02 07:31:00,63.0,52.0,-100.00,North,-999,-999.0,-999.0,68,0.00,,,0.00,0.000000,,2013-03-02 17:31:00,
2013-03-02 07:52:00,65.0,54.0,-100.00,North,-999,-999.0,-999.0,68,0.00,,,0.00,2.000000,,2013-03-02 17:52:00,
2013-03-02 08:01:00,65.0,54.0,-100.00,North,-999,-999.0,-999.0,68,0.00,,,0.00,2.000000,,2013-03-02 18:01:00,
2013-03-02 08:11:00,65.0,54.0,-100.00,North,-999,-999.0,-999.0,68,0.00,,,0.00,2.000000,,2013-03-02 18:11:00,
2013-03-02 08:22:00,65.0,54.0,-100.00,North,-999,-999.0,-999.0,68,0.00,,,0.00,2.000000,,2013-03-02 18:22:00,
2013-03-02 08:31:00,65.0,54.0,-100.00,North,-999,-999.0,-999.0,68,0.00,,,0.00,2.000000,,2013-03-02 18:31:00,
2013-03-02 08:52:00,67.0,53.0,-100.00,North,-999,-999.0,-999.0,60,0.00,,,0.00,99.000000,,2013-03-02 18:52:00,
2013-03-02 09:01:00,67.0,53.0,-100.00,North,-999,-999.0,-999.0,60,0.00,,,0.00,99.000000,,2013-03-02 19:01:00,
2013-03-02 09:11:00,67.0,53.0,-100.00,North,-999,-999.0,-999.0,60,0.00,,,0.00,99.000000,,2013-03-02 19:11:00,
2013-03-02 09:21:00,67.0,53.0,-100.00,North,-999,-999.0,-999.0,60,0.00,,,0.00,99.000000,,2013-03-02 19:21:00,
2013-03-02 09:31:00,67.0,53.0,-100.00,North,-999,-999.0,-999.0,60,0.00,,,0.00,99.000000,,2013-03-02 19:31:00,
2013-03-02 10:01:00,69.0,55.0,-100.00,North,-999,-999.0,-999.0,62,0.00,,,0.00,323.000000,,2013-03-02 20:01:00,
2013-03-02 10:11:00,69.0,55.0,-100.00,North,-999,-999.0,-999.0,62,0.00,,,0.00,323.000000,,2013-03-02 20:11:00,
2013-03-02 10:21:00,69.0,55.0,-100.00,North,-999,-999.0,-999.0,62,0.00,,,0.00,323.000000,,2013-03-02 20:21:00,
2013-03-02 10:31:00,69.0,55.0,-100.00,North,-999,-999.0,-999.0,62,0.00,,,0.00,323.000000,,2013-03-02 20:31:00,
2013-03-02 11:02:00,69.0,56.0,-100.00,North,-999,-999.0,-999.0,63,0.00,,,0.00,598.000000,,2013-03-02 21:02:00,
2013-03-02 11:11:00,69.0,56.0,-100.00,North,-999,-999.0,-999.0,63,0.00,,,0.00,598.000000,,2013-03-02 21:11:00,
2013-03-02 11:21:00,69.0,56.0,-100.00,North,-999,-999.0,-999.0,63,0.00,,,0.00,598.000000,,2013-03-02 21:21:00,
2013-03-02 11:31:00,69.0,56.0,-100.00,North,-999,-999.0,-999.0,63,0.00,,,0.00,598.000000,,2013-03-02 21:31:00,
2013-03-02 11:52:00,73.0,56.0,-100.00,North,-999,-999.0,-999.0,55,0.00,,,0.00,826.000000,,2013-03-02 21:52:00,
2013-03-02 12:01:00,73.0,56.0,-100.00,North,-999,-999.0,-999.0,55,0.00,,,0.00,826.000000,,2013-03-02 22:01:00,
2013-03-02 12:11:00,73.0,56.0,-100.00,North,-999,-999.0,-999.0,55,0.00,,,0.00,826.000000,,2013-03-02 22:11:00,
2013-03-02 12:21:00,73.0,56.0,-100.00,North,-999,-999.0,-999.0,55,0.00,,,0.00,826.000000,,2013-03-02 22:21:00,
2013-03-02 12:31:00,73.0,56.0,-100.00,North,-999,-999.0,-999.0,55,0.00,,,0.00,826.000000,,2013-03-02 22:31:00,
2013-03-02 12:52:00,74.0,53.0,-100.00,North,-999,-999.0,-999.0,48,0.00,,,0.00,1026.000000,,2013-03-02 22:52:00,
2013-03-02 13:01:00,74.0,53.0,-100.00,North,-999,-999.0,-999.0,48,0.00,,,0.00,1026.000000,,2013-03-02 23:01:00,
2013-03-02 13:11:00,74.0,53.0,-100.00,North,-999,-999.0,-999.0,48,0.00,,,0.00,1026.000000,,2013-03-02 23:11:00,
2013-03-02 13:21:00,74.0,53.0,-100.00,North,-999,-999.0,-999.0,48,0.00,,,0.00,1026.000000,,2013-03-02 23:21:00,
2013-03-02 13:31:00,74.0,53.0,-100.00,North,-999,-999.0,-999.0,48,0.00,,,0.00,1026.000000,,2013-03-02 23:31:00,
2013-03-02 13:52:00,73.0,56.0,-100.00,North,-999,-999.0,-999.0,56,0.00,,,0.00,1087.000000,,2013-03-02 23:52:00,
2013-03-02 14:02:00,73.0,56.0,-100.00,North,-999,-999.0,-999.0,56,0.00,,,0.00,1087.000000,,2013-03-03 00:02:00,
2013-03-02 14:11:00,73.0,56.0,-100.00,North,-999,-999.0,-999.0,56,0.00,,,0.00,1087.000000,,2013-03-03 00:11:00,
2013-03-02 14:22:00,73.0,56.0,-100.00,North,-999,-999.0,-999.0,56,0.00,,,0.00,1087.000000,,2013-03-03 00:22:00,
2013-03-02 14:31:00,73.0,56.0,-100.00,North,-999,-999.0,-999.0,56,0.00,,,0.00,1087.000000,,2013-03-03 00:31:00,
2013-03-02 15:01:00,73.0,56.0,-100.00,North,-999,-999.0,-999.0,55,0.00,,,0.00,1054.000000,,2013-03-03 01:01:00,
2013-03-02 15:11:00,73.0,56.0,-100.00,North,-999,-999.0,-999.0,55,0.00,,,0.00,1054.000000,,2013-03-03 01:11:00,
2013-03-02 15:21:00,73.0,56.0,-100.00,North,-999,-999.0,-999.0,55,0.00,,,0.00,1054.000000,,2013-03-03 01:21:00,
2013-03-02 15:31:00,73.0,56.0,-100.00,North,-999,-999.0,-999.0,55,0.00,,,0.00,1054.000000,,2013-03-03 01:31:00,
2013-03-02 16:01:00,71.0,56.0,-100.00,North,-999,-999.0,-999.0,60,0.00,,,0.00,934.000000,,2013-03-03 02:01:00,
2013-03-02 16:11:00,71.0,56.0,-100.00,North,-999,-999.0,-999.0,60,0.00,,,0.00,934.000000,,2013-03-03 02:11:00,
2013-03-02 16:21:00,71.0,56.0,-100.00,North,-999,-999.0,-999.0,60,0.00,,,0.00,934.000000,,2013-03-03 02:21:00,
2013-03-02 16:31:00,71.0,56.0,-100.00,North,-999,-999.0,-999.0,60,0.00,,,0.00,934.000000,,2013-03-03 02:31:00,
2013-03-02 16:52:00,71.0,58.0,-100.00,North,-999,-999.0,-999.0,63,0.00,,,0.00,730.000000,,2013-03-03 02:52:00,
2013-03-02 17:01:00,71.0,58.0,-100.00,North,-999,-999.0,-999.0,63,0.00,,,0.00,730.000000,,2013-03-03 03:01:00,
2013-03-02 17:11:00,71.0,58.0,-100.00,North,-999,-999.0,-999.0,63,0.00,,,0.00,730.000000,,2013-03-03 03:11:00,
2013-03-02 17:21:00,71.0,58.0,-100.00,North,-999,-999.0,-999.0,63,0.00,,,0.00,730.000000,,2013-03-03 03:21:00,
2013-03-02 17:31:00,71.0,58.0,-100.00,North,-999,-999.0,-999.0,63,0.00,,,0.00,730.000000,,2013-03-03 03:31:00,
2013-03-02 17:52:00,71.0,60.0,-100.00,North,-999,-999.0,-999.0,68,0.00,,,0.00,477.000000,,2013-03-03 03:52:00,
2013-03-02 18:01:00,71.0,60.0,-100.00,North,-999,-999.0,-999.0,68,0.00,,,0.00,477.000000,,2013-03-03 04:01:00,
2013-03-02 18:11:00,71.0,60.0,-100.00,North,-999,-999.0,-999.0,68,0.00,,,0.00,477.000000,,2013-03-03 04:11:00,
2013-03-02 18:21:00,71.0,60.0,-100.00,North,-999,-999.0,-999.0,68,0.00,,,0.00,477.000000,,2013-03-03 04:21:00,
2013-03-02 18:31:00,71.0,60.0,-100.00,North,-999,-999.0,-999.0,68,0.00,,,0.00,477.000000,,2013-03-03 04:31:00,
2013-03-02 19:01:00,67.0,59.0,-100.00,North,-999,-999.0,-999.0,75,0.00,,,0.00,143.000000,,2013-03-03 05:01:00,
2013-03-02 19:11:00,67.0,59.0,-100.00,North,-999,-999.0,-999.0,75,0.00,,,0.00,143.000000,,2013-03-03 05:11:00,
2013-03-02 19:22:00,67.0,59.0,-100.00,North,-999,-999.0,-999.0,75,0.00,,,0.00,143.000000,,2013-03-03 05:22:00,
2013-03-02 19:32:00,67.0,59.0,-100.00,North,-999,-999.0,-999.0,75,0.00,,,0.00,143.000000,,2013-03-03 05:32:00,
2013-03-02 20:01:00,66.0,59.0,-100.00,North,-999,-999.0,-999.0,79,0.00,,,0.00,13.000000,,2013-03-03 06:01:00,
2013-03-02 20:11:00,66.0,59.0,-100.00,North,-999,-999.0,-999.0,79,0.00,,,0.00,13.000000,,2013-03-03 06:11:00,
2013-03-02 20:21:00,66.0,59.0,-100.00,North,-999,-999.0,-999.0,79,0.00,,,0.00,13.000000,,2013-03-03 06:21:00,
2013-03-02 20:31:00,66.0,59.0,-100.00,North,-999,-999.0,-999.0,79,0.00,,,0.00,13.000000,,2013-03-03 06:31:00,
2013-03-02 20:52:00,65.0,59.0,-100.00,North,-999,-999.0,-999.0,80,0.00,,,0.00,0.000000,,2013-03-03 06:52:00,
2013-03-02 21:01:00,65.0,59.0,-100.00,North,-999,-999.0,-999.0,80,0.00,,,0.00,0.000000,,2013-03-03 07:01:00,
2013-03-02 21:11:00,65.0,59.0,-100.00,North,-999,-999.0,-999.0,80,0.00,,,0.00,0.000000,,2013-03-03 07:11:00,
2013-03-02 21:21:00,65.0,59.0,-100.00,North,-999,-999.0,-999.0,80,0.00,,,0.00,0.000000,,2013-03-03 07:21:00,
2013-03-02 21:31:00,65.0,59.0,-100.00,North,-999,-999.0,-999.0,80,0.00,,,0.00,0.000000,,2013-03-03 07:31:00,
2013-03-02 21:52:00,66.0,60.0,-100.00,North,-999,-999.0,-999.0,82,0.00,,,0.00,0.000000,,2013-03-03 07:52:00,
2013-03-02 22:01:00,66.0,60.0,-100.00,North,-999,-999.0,-999.0,82,0.00,,,0.00,0.000000,,2013-03-03 08:01:00,
2013-03-02 22:11:00,66.0,60.0,-100.00,North,-999,-999.0,-999.0,82,0.00,,,0.00,0.000000,,2013-03-03 08:11:00,
2013-03-02 22:21:00,66.0,60.0,-100.00,North,-999,-999.0,-999.0,82,0.00,,,0.00,0.000000,,2013-03-03 08:21:00,
2013-03-02 22:31:00,66.0,60.0,-100.00,North,-999,-999.0,-999.0,82,0.00,,,0.00,0.000000,,2013-03-03 08:31:00,
2013-03-02 22:54:00,65.0,58.0,-100.00,North,-999,-999.0,-999.0,79,0.00,,,0.00,0.000000,,2013-03-03 08:54:00,
2013-03-02 23:01:00,65.0,58.0,-100.00,North,-999,-999.0,-999.0,79,0.00,,,0.00,0.000000,,2013-03-03 09:01:00,
2013-03-02 23:11:00,65.0,58.0,-100.00,North,-999,-999.0,-999.0,79,0.00,,,0.00,0.000000,,2013-03-03 09:11:00,
2013-03-02 23:21:00,65.0,58.0,-100.00,North,-999,-999.0,-999.0,79,0.00,,,0.00,0.000000,,2013-03-03 09:21:00,
2013-03-02 23:31:00,65.0,58.0,-100.00,North,-999,-999.0,-999.0,79,0.00,,,0.00,0.000000,,2013-03-03 09:31:00,
2013-03-02 23:52:00,66.0,59.0,-100.00,North,-999,-999.0,-999.0,77,0.00,,,0.00,0.000000,,2013-03-03 09:52:00,